createdAt,value
2022-09-12T00:01:36.303Z,100437.84
2022-09-12T00:04:05.038Z,100438.73
2022-09-12T00:06:37.212Z,100438.30
2022-09-12T00:09:09.674Z,100438.00
2022-09-12T00:11:40.352Z,100440.02
2022-09-12T00:14:11.208Z,100440.27
2022-09-12T00:16:40.323Z,100435.83
2022-09-12T00:19:10.367Z,100438.58
2022-09-12T00:21:40.894Z,100437.61
2022-09-12T00:24:10.087Z,100437.02
2022-09-12T00:26:38.980Z,100437.62
2022-09-12T00:29:07.767Z,100445.81
2022-09-12T00:31:37.104Z,100443.42
2022-09-12T00:34:05.652Z,100440.45
2022-09-12T00:36:34.550Z,100440.48
2022-09-12T00:39:04.386Z,100436.13
2022-09-12T00:41:36.002Z,100433.30
2022-09-12T00:44:27.537Z,100431.69
2022-09-12T00:47:05.338Z,100428.30
2022-09-12T00:49:52.667Z,100429.98
2022-09-12T00:52:30.056Z,100424.64
2022-09-12T00:55:26.796Z,100426.38
2022-09-12T00:58:04.838Z,100424.06
2022-09-12T01:00:34.203Z,100421.83
2022-09-12T01:03:09.497Z,100419.83
2022-09-12T01:05:44.777Z,100419.14
2022-09-12T01:08:13.679Z,100422.94
2022-09-12T01:10:43.354Z,100423.56
2022-09-12T01:13:11.973Z,100425.34
2022-09-12T01:15:41.476Z,100427.21
2022-09-12T01:18:15.496Z,100429.18
2022-09-12T01:20:56.158Z,100427.36
2022-09-12T01:23:45.740Z,100428.34
2022-09-12T01:26:40.532Z,100427.89
2022-09-12T01:29:27.961Z,100425.36
2022-09-12T01:32:13.375Z,100418.57
2022-09-12T01:34:47.965Z,100415.72
2022-09-12T01:37:25.373Z,100424.44
2022-09-12T01:40:03.633Z,100423.20
2022-09-12T01:42:41.442Z,100430.39
2022-09-12T01:45:15.783Z,100434.66
2022-09-12T01:48:03.582Z,100436.83
2022-09-12T01:50:38.407Z,100437.03
2022-09-12T01:53:19.733Z,100437.03
2022-09-12T01:56:07.861Z,100432.93
2022-09-12T01:59:01.244Z,100434.64
2022-09-12T02:01:36.998Z,100435.35
2022-09-12T02:04:21.264Z,100433.29
2022-09-12T02:06:55.872Z,100431.00
2022-09-12T02:09:27.323Z,100425.98
2022-09-12T02:11:59.596Z,100424.55
2022-09-12T02:14:32.989Z,100424.09
2022-09-12T02:17:02.911Z,100420.45
2022-09-12T02:19:43.993Z,100418.23
2022-09-12T02:22:17.562Z,100414.65
2022-09-12T02:24:48.523Z,100413.99
2022-09-12T02:27:47.010Z,100416.63
2022-09-12T02:30:17.007Z,100416.90
2022-09-12T02:33:04.350Z,100418.75
2022-09-12T02:35:40.616Z,100421.84
2022-09-12T02:38:25.073Z,100421.94
2022-09-12T02:40:54.576Z,100422.59
2022-09-12T02:43:23.264Z,100422.02
2022-09-12T02:45:52.151Z,100424.77
2022-09-12T02:48:26.991Z,100420.98
2022-09-12T02:50:55.877Z,100418.75
2022-09-12T02:53:24.675Z,100414.73
2022-09-12T02:55:54.016Z,100414.90
2022-09-12T02:58:27.583Z,100416.84
2022-09-12T03:01:34.313Z,100417.17
2022-09-12T03:04:21.467Z,100418.36
2022-09-12T03:06:59.166Z,100417.78
2022-09-12T03:10:01.950Z,100411.92
2022-09-12T03:12:36.657Z,100416.80
2022-09-12T03:15:15.708Z,100420.80
2022-09-12T03:18:07.022Z,100425.88
2022-09-12T03:20:46.363Z,100423.09
2022-09-12T03:23:37.582Z,100424.71
2022-09-12T03:26:25.212Z,100428.29
2022-09-12T03:28:56.329Z,100432.09
2022-09-12T03:31:25.142Z,100436.95
2022-09-12T03:33:53.939Z,100437.83
2022-09-12T03:36:29.383Z,100438.88
2022-09-12T03:38:57.962Z,100439.30
2022-09-12T03:41:26.544Z,100439.48
2022-09-12T03:43:57.285Z,100439.75
2022-09-12T03:46:26.272Z,100439.86
2022-09-12T03:48:55.060Z,100441.19
2022-09-12T03:51:23.850Z,100440.41
2022-09-12T03:53:52.639Z,100442.44
2022-09-12T03:56:21.940Z,100440.07
2022-09-12T03:58:50.629Z,100439.27
2022-09-12T04:01:20.916Z,100438.78
2022-09-12T04:03:52.608Z,100433.06
2022-09-12T04:06:23.682Z,100428.16
2022-09-12T04:08:54.447Z,100428.65
2022-09-12T04:11:24.505Z,100429.31
2022-09-12T04:13:53.291Z,100431.27
2022-09-12T04:16:22.412Z,100436.40
2022-09-12T04:18:51.014Z,100440.48
2022-09-12T04:21:22.506Z,100442.61
2022-09-12T04:23:51.423Z,100443.69
2022-09-12T04:26:21.483Z,100442.52
2022-09-12T04:28:55.347Z,100447.21
2022-09-12T04:31:25.874Z,100452.23
2022-09-12T04:33:57.174Z,100457.64
2022-09-12T04:36:28.454Z,100462.00
2022-09-12T04:38:57.261Z,100467.59
2022-09-12T04:41:28.783Z,100474.79
2022-09-12T04:44:02.589Z,100478.83
2022-09-12T04:46:35.509Z,100479.95
2022-09-12T04:49:04.295Z,100485.92
2022-09-12T04:51:36.258Z,100491.68
2022-09-12T04:54:08.656Z,100497.95
2022-09-12T04:56:40.130Z,100501.95
2022-09-12T04:59:09.488Z,100507.60
2022-09-12T05:01:38.296Z,100508.35
2022-09-12T05:04:07.169Z,100506.98
2022-09-12T05:06:37.614Z,100509.48
2022-09-12T05:09:08.638Z,100508.54
2022-09-12T05:12:03.332Z,100509.59
2022-09-12T05:14:30.072Z,100508.48
2022-09-12T05:17:01.017Z,100507.05
2022-09-12T05:19:31.328Z,100502.85
2022-09-12T05:22:00.843Z,100504.07
2022-09-12T05:24:29.529Z,100505.47
2022-09-12T05:26:58.216Z,100506.26
2022-09-12T05:29:27.005Z,100502.09
2022-09-12T05:31:55.954Z,100503.54
2022-09-12T05:34:25.104Z,100500.57
2022-09-12T05:36:54.000Z,100498.80
2022-09-12T05:39:24.004Z,100495.96
2022-09-12T05:41:52.588Z,100494.02
2022-09-12T05:44:21.580Z,100492.54
2022-09-12T05:46:51.734Z,100493.15
2022-09-12T05:49:21.982Z,100496.83
2022-09-12T05:51:51.938Z,100495.81
2022-09-12T05:54:21.656Z,100490.94
2022-09-12T05:56:50.353Z,100488.76
2022-09-12T05:59:21.376Z,100484.44
2022-09-12T06:01:50.588Z,100483.05
2022-09-12T06:04:19.376Z,100477.89
2022-09-12T06:06:49.061Z,100471.02
2022-09-12T06:09:18.892Z,100470.46
2022-09-12T06:11:48.193Z,100469.50
2022-09-12T06:14:20.044Z,100473.61
2022-09-12T06:16:48.978Z,100471.51
2022-09-12T06:19:20.574Z,100469.54
2022-09-12T06:21:52.032Z,100468.22
2022-09-12T06:24:22.173Z,100471.19
2022-09-12T06:26:53.008Z,100474.95
2022-09-12T06:29:22.619Z,100473.89
2022-09-12T06:31:51.407Z,100471.04
2022-09-12T06:34:20.401Z,100472.39
2022-09-12T06:36:50.313Z,100470.77
2022-09-12T06:39:21.739Z,100476.66
2022-09-12T06:41:51.995Z,100478.21
2022-09-12T06:44:32.042Z,100478.45
2022-09-12T06:47:00.525Z,100472.61
2022-09-12T06:49:29.640Z,100476.40
2022-09-12T06:51:59.131Z,100477.05
2022-09-12T06:54:28.124Z,100484.36
2022-09-12T06:56:57.014Z,100481.91
2022-09-12T06:59:26.004Z,100483.52
2022-09-12T07:01:54.994Z,100490.65
2022-09-12T07:04:23.889Z,100492.13
2022-09-12T07:06:52.477Z,100491.05
2022-09-12T07:09:21.513Z,100488.35
2022-09-12T07:11:50.054Z,100487.14
2022-09-12T07:14:18.637Z,100490.45
2022-09-12T07:16:47.288Z,100492.38
2022-09-12T07:19:16.110Z,100491.92
2022-09-12T07:21:44.799Z,100486.89
2022-09-12T07:24:13.688Z,100486.02
2022-09-12T07:26:43.046Z,100488.10
2022-09-12T07:32:07.608Z,100487.21
2022-09-12T07:34:37.814Z,100485.95
2022-09-12T07:37:08.247Z,100485.64
2022-09-12T07:39:38.267Z,100489.02
2022-09-12T07:42:07.473Z,100495.11
2022-09-12T07:44:36.054Z,100498.05
2022-09-12T07:47:05.253Z,100495.33
2022-09-12T07:49:33.837Z,100486.11
2022-09-12T07:52:03.239Z,100488.27
2022-09-12T07:54:33.667Z,100493.83
2022-09-12T07:57:02.566Z,100492.20
2022-09-12T07:59:51.569Z,100491.52
2022-09-12T08:02:20.760Z,100490.52
2022-09-12T08:04:49.720Z,100485.77
2022-09-12T08:07:19.530Z,100485.55
2022-09-12T08:09:48.827Z,100485.02
2022-09-12T08:12:18.331Z,100484.31
2022-09-12T08:14:47.225Z,100484.58
2022-09-12T08:17:16.017Z,100481.29
2022-09-12T08:19:45.539Z,100479.02
2022-09-12T08:22:14.869Z,100482.91
2022-09-12T08:24:44.543Z,100484.18
2022-09-12T08:27:13.319Z,100478.94
2022-09-12T08:29:42.312Z,100476.41
2022-09-12T08:32:11.101Z,100474.88
2022-09-12T08:34:39.687Z,100470.55
2022-09-12T08:37:08.269Z,100465.02
2022-09-12T08:39:37.552Z,100458.83
2022-09-12T08:42:07.604Z,100457.44
2022-09-12T08:44:51.636Z,100458.88
2022-09-12T08:47:31.941Z,100454.70
2022-09-12T08:50:12.585Z,100450.16
2022-09-12T08:52:44.731Z,100452.46
2022-09-12T08:55:27.969Z,100449.39
2022-09-12T08:57:56.851Z,100449.08
2022-09-12T09:00:32.486Z,100446.98
2022-09-12T09:03:10.513Z,100444.58
2022-09-12T09:06:14.928Z,100441.55
2022-09-12T09:08:49.048Z,100438.76
2022-09-12T09:11:56.234Z,100435.86
2022-09-12T09:14:52.874Z,100431.20
2022-09-12T09:17:28.624Z,100429.17
2022-09-12T09:20:10.629Z,100430.73
2022-09-12T09:22:50.583Z,100429.96
2022-09-12T09:25:42.969Z,100428.48
2022-09-12T09:28:19.720Z,100428.20
2022-09-12T09:30:49.279Z,100422.67
2022-09-12T09:33:31.619Z,100418.54
2022-09-12T09:36:45.047Z,100414.20
2022-09-12T09:39:38.765Z,100412.55
2022-09-12T09:42:22.659Z,100409.69
2022-09-12T09:44:54.428Z,100410.13
2022-09-12T09:47:23.410Z,100406.25
2022-09-12T09:49:52.357Z,100403.30
2022-09-12T09:52:28.066Z,100404.91
2022-09-12T09:55:02.291Z,100406.30
2022-09-12T09:57:37.348Z,100407.73
2022-09-12T10:00:29.953Z,100404.36
2022-09-12T10:03:13.828Z,100401.82
2022-09-12T10:06:01.360Z,100400.01
2022-09-12T10:08:39.331Z,100398.42
2022-09-12T10:11:18.061Z,100400.21
2022-09-12T10:13:49.830Z,100402.80
2022-09-12T10:16:25.456Z,100404.31
2022-09-12T10:18:56.927Z,100404.30
2022-09-12T10:21:34.407Z,100403.83
2022-09-12T10:24:21.625Z,100406.10
2022-09-12T10:26:57.406Z,100403.05
2022-09-12T10:29:31.704Z,100400.98
2022-09-12T10:32:03.842Z,100403.69
2022-09-12T10:34:39.923Z,100402.77
2022-09-12T10:37:31.346Z,100400.52
2022-09-12T10:40:01.961Z,100396.11
2022-09-12T10:42:49.406Z,100399.31
2022-09-12T10:45:26.392Z,100402.31
2022-09-12T10:48:04.105Z,100404.00
2022-09-12T10:50:43.608Z,100405.14
2022-09-12T10:53:22.879Z,100402.59
2022-09-12T10:55:54.541Z,100407.71
2022-09-12T10:59:00.781Z,100405.79
2022-09-12T11:01:47.240Z,100400.84
2022-09-12T11:04:22.385Z,100397.13
2022-09-12T11:07:06.368Z,100386.70
2022-09-12T11:09:40.058Z,100380.15
2022-09-12T11:12:17.768Z,100380.13
2022-09-12T11:15:08.685Z,100383.80
2022-09-12T11:17:44.125Z,100382.77
2022-09-12T11:20:22.131Z,100380.79
2022-09-12T11:23:13.202Z,100376.25
2022-09-12T11:26:07.369Z,100373.21
2022-09-12T11:28:56.900Z,100378.11
2022-09-12T11:32:04.400Z,100378.65
2022-09-12T11:34:53.664Z,100376.14
2022-09-12T11:37:37.304Z,100378.20
2022-09-12T11:40:34.011Z,100379.88
2022-09-12T11:43:13.388Z,100379.63
2022-09-12T11:45:45.390Z,100379.52
2022-09-12T11:48:39.023Z,100381.00
2022-09-12T11:51:18.518Z,100376.46
2022-09-12T11:53:59.252Z,100373.09
2022-09-12T11:56:28.120Z,100375.19
2022-09-12T11:59:05.995Z,100379.02
2022-09-12T12:01:46.365Z,100387.96
2022-09-12T12:04:26.333Z,100392.67
2022-09-12T12:07:05.105Z,100400.02
2022-09-12T12:09:34.652Z,100405.98
2022-09-12T12:12:09.643Z,100421.99
2022-09-12T12:14:48.319Z,100433.17
2022-09-12T12:17:23.662Z,100432.88
2022-09-12T12:20:06.698Z,100427.12
2022-09-12T12:22:38.032Z,100425.27
2022-09-12T12:25:30.135Z,100423.75
2022-09-12T12:28:05.792Z,100427.21
2022-09-12T12:30:41.254Z,100426.73
2022-09-12T12:33:15.687Z,100425.56
2022-09-12T12:36:02.190Z,100428.84
2022-09-12T12:38:37.428Z,100431.98
2022-09-12T12:41:18.480Z,100437.23
2022-09-12T12:43:52.477Z,100440.86
2022-09-12T12:46:27.195Z,100446.57
2022-09-12T12:49:02.074Z,100456.31
2022-09-12T12:51:39.746Z,100459.55
2022-09-12T12:54:42.458Z,100448.56
2022-09-12T12:57:14.028Z,100438.61
2022-09-12T13:00:26.527Z,100439.02
2022-09-12T13:03:01.562Z,100434.71
2022-09-12T13:05:39.464Z,100437.80
2022-09-12T13:08:26.744Z,100434.52
2022-09-12T13:11:06.959Z,100434.00
2022-09-12T13:13:45.974Z,100432.10
2022-09-12T13:16:30.947Z,100435.98
2022-09-12T13:19:18.145Z,100434.88
2022-09-12T13:22:06.918Z,100432.57
2022-09-12T13:24:49.224Z,100431.37
2022-09-12T13:27:26.010Z,100433.98
2022-09-12T13:30:15.654Z,100434.38
2022-09-12T13:32:44.983Z,100440.14
2022-09-12T13:35:16.972Z,100440.79
2022-09-12T13:38:02.425Z,100442.93
2022-09-12T13:40:48.622Z,100446.17
2022-09-12T13:43:41.277Z,100451.09
2022-09-12T13:46:15.513Z,100457.40
2022-09-12T13:48:44.927Z,100457.42
2022-09-12T13:51:26.491Z,100453.33
2022-09-12T13:53:59.678Z,100450.10
2022-09-12T13:56:28.871Z,100452.35
2022-09-12T13:59:01.506Z,100448.77
2022-09-12T14:01:45.368Z,100453.45
2022-09-12T14:04:40.123Z,100459.02
2022-09-12T14:07:12.055Z,100458.53
2022-09-12T14:09:44.944Z,100453.42
2022-09-12T14:12:33.903Z,100451.17
2022-09-12T14:15:03.413Z,100449.96
2022-09-12T14:17:39.139Z,100449.63
2022-09-12T14:20:14.806Z,100447.20
2022-09-12T14:22:46.375Z,100445.14
2022-09-12T14:25:22.420Z,100446.96
2022-09-12T14:27:57.249Z,100450.02
2022-09-12T14:30:32.258Z,100448.27
2022-09-12T14:33:12.963Z,100445.45
2022-09-12T14:35:44.479Z,100444.59
2022-09-12T14:38:16.164Z,100446.69
2022-09-12T14:41:08.919Z,100449.41
2022-09-12T14:43:51.118Z,100452.09
2022-09-12T14:46:25.394Z,100459.66
2022-09-12T14:48:59.355Z,100464.80
2022-09-12T14:51:34.265Z,100464.58
2022-09-12T14:54:03.271Z,100461.89
2022-09-12T14:57:06.988Z,100462.23
2022-09-12T14:59:35.756Z,100460.51
2022-09-12T15:02:22.691Z,100460.97
2022-09-12T15:05:12.770Z,100462.29
2022-09-12T15:08:01.123Z,100460.63
2022-09-12T15:10:31.638Z,100464.21
2022-09-12T15:13:06.378Z,100468.61
2022-09-12T15:15:36.650Z,100475.80
2022-09-12T15:18:07.062Z,100480.95
2022-09-12T15:20:41.119Z,100481.63
2022-09-12T15:23:19.974Z,100473.74
2022-09-12T15:25:49.058Z,100471.36
2022-09-12T15:28:20.996Z,100474.15
2022-09-12T15:30:53.066Z,100480.05
2022-09-12T15:33:24.719Z,100485.05
2022-09-12T15:35:53.948Z,100484.64
2022-09-12T15:38:26.333Z,100480.63
2022-09-12T15:40:56.235Z,100482.24
2022-09-12T15:43:26.739Z,100483.48
2022-09-12T15:45:55.389Z,100486.47
2022-09-12T15:48:24.457Z,100488.23
2022-09-12T15:50:53.437Z,100493.06
2022-09-12T15:53:22.265Z,100494.80
2022-09-12T15:55:51.225Z,100502.22
2022-09-12T15:58:20.111Z,100505.01
2022-09-12T16:00:49.107Z,100504.21
2022-09-12T16:03:26.766Z,100507.55
2022-09-12T16:06:03.848Z,100511.20
2022-09-12T16:08:33.306Z,100511.67
2022-09-12T16:11:13.241Z,100514.88
2022-09-12T16:13:41.928Z,100518.16
2022-09-12T16:16:11.071Z,100516.65
2022-09-12T16:18:41.070Z,100514.09
2022-09-12T16:21:14.209Z,100512.57
2022-09-12T16:23:45.275Z,100513.98
2022-09-12T16:26:16.580Z,100520.07
2022-09-12T16:28:46.118Z,100527.59
2022-09-12T16:31:15.395Z,100535.33
2022-09-12T16:33:44.129Z,100536.93
2022-09-12T16:36:22.020Z,100543.65
2022-09-12T16:39:22.660Z,100547.22
2022-09-12T16:41:51.442Z,100546.90
2022-09-12T16:44:20.576Z,100553.43
2022-09-12T16:46:50.751Z,100554.60
2022-09-12T16:49:19.556Z,100559.30
2022-09-12T16:51:50.295Z,100560.96
2022-09-12T16:54:21.521Z,100565.61
2022-09-12T16:56:54.831Z,100575.41
2022-09-12T16:59:23.826Z,100586.08
2022-09-12T17:01:52.756Z,100589.73
2022-09-12T17:04:23.670Z,100589.02
2022-09-12T17:06:52.547Z,100591.80
2022-09-12T17:09:22.362Z,100600.84
2022-09-12T17:11:51.064Z,100606.20
2022-09-12T17:14:19.948Z,100606.41
2022-09-12T17:16:51.829Z,100610.67
2022-09-12T17:19:30.190Z,100619.19
2022-09-12T17:21:59.409Z,100622.95
2022-09-12T17:24:28.197Z,100631.73
2022-09-12T17:26:57.499Z,100641.67
2022-09-12T17:29:26.194Z,100643.86
2022-09-12T17:31:56.103Z,100645.44
2022-09-12T17:34:24.906Z,100651.27
2022-09-12T17:36:53.378Z,100659.92
2022-09-12T17:39:22.057Z,100661.08
2022-09-12T17:41:52.282Z,100659.17
2022-09-12T17:44:20.967Z,100657.00
2022-09-12T17:46:50.239Z,100653.64
2022-09-12T17:49:21.308Z,100650.55
2022-09-12T17:51:53.069Z,100651.32
2022-09-12T17:54:22.582Z,100650.14
2022-09-12T17:56:52.391Z,100650.43
2022-09-12T17:59:25.084Z,100652.02
2022-09-12T18:02:12.378Z,100654.20
2022-09-12T18:04:42.492Z,100662.12
2022-09-12T18:07:11.301Z,100665.39
2022-09-12T18:09:41.626Z,100668.58
2022-09-12T18:12:10.961Z,100673.81
2022-09-12T18:14:39.739Z,100676.13
2022-09-12T18:17:09.325Z,100674.46
2022-09-12T18:19:38.680Z,100674.61
2022-09-12T18:22:07.866Z,100671.42
2022-09-12T18:24:36.818Z,100674.86
2022-09-12T18:27:05.819Z,100675.90
2022-09-12T18:29:34.604Z,100679.43
2022-09-12T18:32:03.393Z,100684.27
2022-09-12T18:34:32.081Z,100686.45
2022-09-12T18:37:02.350Z,100686.84
2022-09-12T18:39:31.089Z,100689.40
2022-09-12T18:41:59.774Z,100693.13
2022-09-12T18:44:28.564Z,100695.48
2022-09-12T18:46:57.368Z,100698.33
2022-09-12T18:49:26.158Z,100700.52
2022-09-12T18:51:54.933Z,100696.67
2022-09-12T18:54:23.720Z,100693.70
2022-09-12T18:56:52.302Z,100695.04
2022-09-12T18:59:21.223Z,100696.39
2022-09-12T19:01:50.848Z,100691.81
2022-09-12T19:04:19.592Z,100692.04
2022-09-12T19:06:49.129Z,100695.05
2022-09-12T19:09:21.362Z,100697.21
2022-09-12T19:11:50.356Z,100699.39
2022-09-12T19:14:25.212Z,100697.85
2022-09-12T19:16:54.433Z,100697.25
2022-09-12T19:19:23.898Z,100698.73
2022-09-12T19:21:52.687Z,100701.23
2022-09-12T19:24:22.296Z,100703.56
2022-09-12T19:26:52.212Z,100707.69
2022-09-12T19:29:20.895Z,100707.58
2022-09-12T19:31:49.793Z,100707.63
2022-09-12T19:34:18.576Z,100705.70
2022-09-12T19:36:47.646Z,100704.78
2022-09-12T19:39:20.085Z,100701.32
2022-09-12T19:41:49.598Z,100702.74
2022-09-12T19:44:21.315Z,100698.33
2022-09-12T19:46:50.406Z,100701.45
2022-09-12T19:49:18.910Z,100707.42
2022-09-12T19:51:47.575Z,100709.70
2022-09-12T19:54:16.260Z,100715.66
2022-09-12T19:56:44.970Z,100717.41
2022-09-12T19:59:13.529Z,100723.39
2022-09-12T20:01:42.256Z,100727.83
2022-09-12T20:04:14.157Z,100728.51
2022-09-12T20:06:43.176Z,100728.81
2022-09-12T20:09:12.124Z,100730.00
2022-09-12T20:11:40.959Z,100729.94
2022-09-12T20:14:10.059Z,100734.04
2022-09-12T20:16:38.842Z,100735.19
2022-09-12T20:19:08.860Z,100739.27
2022-09-12T20:21:37.650Z,100737.57
2022-09-12T20:24:10.535Z,100739.17
2022-09-12T20:26:40.380Z,100738.39
2022-09-12T20:29:10.575Z,100737.47
2022-09-12T20:31:41.244Z,100737.80
2022-09-12T20:34:16.806Z,100738.52
2022-09-12T20:36:46.509Z,100740.09
2022-09-12T20:39:19.333Z,100738.16
2022-09-12T20:41:48.549Z,100736.79
2022-09-12T20:44:17.239Z,100734.17
2022-09-12T20:46:45.888Z,100731.60
2022-09-12T20:49:14.811Z,100730.66
2022-09-12T20:51:43.499Z,100729.88
2022-09-12T20:54:12.245Z,100726.13
2022-09-12T20:56:40.875Z,100723.73
2022-09-12T20:59:12.373Z,100726.95
2022-09-12T21:01:41.329Z,100732.45
2022-09-12T21:04:14.381Z,100732.14
2022-09-12T21:06:44.217Z,100735.53
2022-09-12T21:09:13.212Z,100735.23
2022-09-12T21:11:42.153Z,100735.61
2022-09-12T21:14:11.201Z,100734.63
2022-09-12T21:16:39.989Z,100733.64
2022-09-12T21:19:08.837Z,100738.59
2022-09-12T21:21:37.980Z,100736.36
2022-09-12T21:24:07.290Z,100738.85
2022-09-12T21:26:36.166Z,100741.70
2022-09-12T21:29:04.958Z,100743.15
2022-09-12T21:31:33.835Z,100744.23
2022-09-12T21:34:03.357Z,100747.42
2022-09-12T21:36:31.990Z,100751.34
2022-09-12T21:39:00.946Z,100746.30
2022-09-12T21:41:29.624Z,100742.46
2022-09-12T21:43:58.509Z,100744.27
2022-09-12T21:46:27.434Z,100745.88
2022-09-12T21:48:56.295Z,100752.40
2022-09-12T21:51:25.079Z,100754.20
2022-09-12T21:53:53.665Z,100751.61
2022-09-12T21:56:22.556Z,100752.34
2022-09-12T21:58:51.346Z,100753.08
2022-09-12T22:01:20.077Z,100752.23
2022-09-12T22:03:50.457Z,100754.00
2022-09-12T22:06:22.418Z,100749.98
2022-09-12T22:08:51.827Z,100750.64
2022-09-12T22:11:20.927Z,100749.53
2022-09-12T22:13:50.075Z,100748.07
2022-09-12T22:16:19.031Z,100743.08
2022-09-12T22:18:48.005Z,100740.91
2022-09-12T22:21:19.426Z,100739.09
2022-09-12T22:24:06.787Z,100742.52
2022-09-12T22:26:46.833Z,100744.75
2022-09-12T22:29:15.523Z,100743.80
2022-09-12T22:31:45.173Z,100743.95
2022-09-12T22:34:14.531Z,100742.35
2022-09-12T22:36:43.119Z,100746.38
2022-09-12T22:39:12.008Z,100745.86
2022-09-12T22:41:40.799Z,100743.60
2022-09-12T22:44:10.959Z,100742.77
2022-09-12T22:46:40.005Z,100740.17
2022-09-12T22:49:09.009Z,100741.66
2022-09-12T22:51:38.104Z,100742.06
2022-09-12T22:54:07.769Z,100742.98
2022-09-12T22:56:36.606Z,100740.27
2022-09-12T22:59:05.597Z,100744.90
2022-09-12T23:01:36.075Z,100748.50
2022-09-12T23:04:05.836Z,100745.61
2022-09-12T23:06:34.932Z,100740.27
2022-09-12T23:09:04.137Z,100737.38
2022-09-12T23:11:32.953Z,100734.98
2022-09-12T23:14:01.914Z,100730.91
2022-09-12T23:16:32.494Z,100727.73
2022-09-12T23:19:01.340Z,100726.68
2022-09-12T23:21:30.536Z,100729.55
2022-09-12T23:23:59.323Z,100727.60
2022-09-12T23:26:30.982Z,100724.40
2022-09-12T23:29:02.101Z,100723.27
2022-09-12T23:31:32.800Z,100720.17
2022-09-12T23:34:04.897Z,100720.89
2022-09-12T23:36:34.618Z,100719.02
2022-09-12T23:39:03.751Z,100717.13
2022-09-12T23:41:32.930Z,100717.67
2022-09-12T23:44:02.332Z,100720.86
2022-09-12T23:46:30.917Z,100722.99
2022-09-12T23:48:59.512Z,100721.80
2022-09-12T23:51:28.289Z,100720.43
2022-09-12T23:53:56.880Z,100718.75
2022-09-12T23:56:25.564Z,100715.09
2022-09-12T23:58:54.145Z,100711.59
